createdAt,value
2018-12-17T00:00:17.275Z,22.22
2018-12-17T00:01:17.252Z,22.24
2018-12-17T00:02:17.243Z,22.30
2018-12-17T00:03:17.234Z,22.30
2018-12-17T00:04:17.216Z,22.27
2018-12-17T00:05:17.221Z,22.27
2018-12-17T00:06:17.196Z,22.29
2018-12-17T00:07:17.189Z,22.26
2018-12-17T00:08:17.173Z,22.18
2018-12-17T00:09:17.165Z,22.29
2018-12-17T00:10:17.162Z,22.27
2018-12-17T00:11:17.139Z,22.20
2018-12-17T00:12:17.168Z,22.26
2018-12-17T00:13:17.145Z,22.23
2018-12-17T00:14:17.107Z,22.33
2018-12-17T00:15:17.109Z,22.26
2018-12-17T00:16:17.082Z,22.29
2018-12-17T00:17:17.072Z,22.38
2018-12-17T00:18:17.075Z,22.31
2018-12-17T00:19:17.049Z,22.29
2018-12-17T00:20:17.050Z,22.26
2018-12-17T00:21:17.031Z,22.26
2018-12-17T00:22:17.017Z,22.27
2018-12-17T00:23:17.006Z,22.31
2018-12-17T00:24:17.008Z,22.24
2018-12-17T00:25:16.999Z,22.29
2018-12-17T00:26:16.976Z,22.15
2018-12-17T00:27:16.959Z,22.29
2018-12-17T00:28:16.948Z,22.22
2018-12-17T00:29:16.955Z,22.23
2018-12-17T00:30:16.938Z,22.20
2018-12-17T00:31:16.945Z,22.18
2018-12-17T00:32:16.903Z,22.26
2018-12-17T00:33:16.892Z,22.26
2018-12-17T00:34:16.888Z,22.16
2018-12-17T00:35:16.882Z,22.26
2018-12-17T00:36:16.877Z,22.24
2018-12-17T00:37:16.865Z,22.15
2018-12-17T00:38:16.838Z,22.15
2018-12-17T00:39:16.826Z,22.09
2018-12-17T00:40:16.833Z,22.22
2018-12-17T00:41:16.808Z,22.26
2018-12-17T00:42:16.794Z,22.22
2018-12-17T00:43:16.781Z,22.16
2018-12-17T00:44:16.771Z,22.20
2018-12-17T00:45:16.760Z,22.27
2018-12-17T00:46:16.790Z,22.20
2018-12-17T00:47:16.744Z,22.22
2018-12-17T00:48:16.727Z,22.20
2018-12-17T00:49:16.715Z,22.15
2018-12-17T00:50:16.704Z,22.22
2018-12-17T00:51:16.703Z,22.20
2018-12-17T00:52:16.681Z,22.15
2018-12-17T00:53:16.681Z,22.18
2018-12-17T00:54:16.660Z,22.15
2018-12-17T00:55:16.650Z,22.14
2018-12-17T00:56:16.648Z,22.12
2018-12-17T00:57:16.626Z,22.18
2018-12-17T00:58:16.615Z,22.18
2018-12-17T00:59:16.623Z,22.18
2018-12-17T01:00:16.591Z,22.07
2018-12-17T01:01:16.591Z,22.18
2018-12-17T01:02:16.569Z,22.15
2018-12-17T01:03:16.558Z,22.15
2018-12-17T01:04:16.565Z,22.18
2018-12-17T01:05:16.537Z,22.16
2018-12-17T01:06:16.535Z,22.22
2018-12-17T01:07:16.515Z,22.22
2018-12-17T01:08:16.503Z,22.14
2018-12-17T01:09:16.494Z,22.15
2018-12-17T01:10:16.487Z,22.15
2018-12-17T01:11:16.480Z,22.14
2018-12-17T01:12:16.460Z,22.22
2018-12-17T01:13:16.447Z,22.18
2018-12-17T01:14:16.434Z,22.18
2018-12-17T01:15:16.428Z,22.16
2018-12-17T01:16:16.427Z,22.12
2018-12-17T01:17:16.401Z,22.14
2018-12-17T01:18:16.389Z,22.12
2018-12-17T01:19:16.381Z,22.15
2018-12-17T01:20:16.366Z,22.18
2018-12-17T01:21:16.370Z,22.11
2018-12-17T01:22:16.362Z,22.24
2018-12-17T01:23:16.336Z,22.18
2018-12-17T01:24:16.324Z,22.11
2018-12-17T01:25:16.384Z,22.16
2018-12-17T01:26:16.312Z,22.20
2018-12-17T01:27:16.290Z,22.22
2018-12-17T01:28:22.109Z,22.22
2018-12-17T01:29:17.271Z,22.15
2018-12-17T01:30:16.255Z,22.22
2018-12-17T01:31:16.257Z,22.23
2018-12-17T01:32:16.236Z,22.20
2018-12-17T01:33:16.223Z,22.14
2018-12-17T01:34:16.213Z,22.22
2018-12-17T01:35:16.199Z,22.20
2018-12-17T01:36:16.200Z,22.23
2018-12-17T01:37:16.176Z,22.14
2018-12-17T01:38:16.166Z,22.20
2018-12-17T01:39:16.161Z,22.15
2018-12-17T01:40:16.147Z,22.22
2018-12-17T01:41:16.146Z,22.24
2018-12-17T01:42:16.121Z,22.24
2018-12-17T01:43:16.111Z,22.15
2018-12-17T01:44:16.112Z,22.22
2018-12-17T01:45:16.102Z,22.24
2018-12-17T01:46:16.093Z,22.29
2018-12-17T01:47:16.066Z,22.15
2018-12-17T01:48:16.057Z,22.31
2018-12-17T01:49:16.043Z,22.23
2018-12-17T01:50:16.056Z,22.26
2018-12-17T01:51:16.032Z,22.24
2018-12-17T01:52:16.008Z,22.24
2018-12-17T01:53:15.999Z,22.33
2018-12-17T01:54:15.992Z,22.29
2018-12-17T01:55:15.981Z,22.26
2018-12-17T01:56:15.990Z,22.29
2018-12-17T01:57:15.954Z,22.29
2018-12-17T01:58:15.943Z,22.31
2018-12-17T01:59:15.930Z,22.26
2018-12-17T02:00:15.923Z,22.26
2018-12-17T02:01:15.920Z,22.31
2018-12-17T02:02:15.902Z,22.27
2018-12-17T02:03:15.893Z,22.23
2018-12-17T02:04:15.878Z,22.31
2018-12-17T02:05:15.865Z,22.36
2018-12-17T02:06:15.890Z,22.31
2018-12-17T02:07:15.849Z,22.24
2018-12-17T02:08:15.846Z,22.22
2018-12-17T02:09:15.823Z,22.31
2018-12-17T02:10:15.811Z,22.30
2018-12-17T02:11:15.873Z,22.20
2018-12-17T02:12:15.800Z,22.31
2018-12-17T02:13:15.774Z,22.30
2018-12-17T02:14:15.764Z,22.26
2018-12-17T02:15:16.353Z,22.33
2018-12-17T02:16:15.741Z,22.31
2018-12-17T02:17:15.742Z,22.23
2018-12-17T02:18:15.754Z,22.27
2018-12-17T02:19:15.712Z,22.29
2018-12-17T02:20:15.695Z,22.27
2018-12-17T02:21:15.687Z,22.26
2018-12-17T02:22:15.700Z,22.22
2018-12-17T02:23:15.663Z,22.27
2018-12-17T02:24:15.668Z,22.27
2018-12-17T02:25:15.639Z,22.27
2018-12-17T02:26:15.629Z,22.30
2018-12-17T02:27:15.632Z,22.34
2018-12-17T02:28:15.615Z,22.20
2018-12-17T02:29:15.601Z,22.23
2018-12-17T02:30:15.585Z,22.29
2018-12-17T02:31:15.590Z,22.26
2018-12-17T02:32:15.574Z,22.29
2018-12-17T02:33:15.549Z,22.22
2018-12-17T02:34:15.539Z,22.23
2018-12-17T02:35:15.534Z,22.27
2018-12-17T02:36:15.518Z,22.26
2018-12-17T02:37:15.523Z,22.26
2018-12-17T02:38:15.504Z,22.26
2018-12-17T02:39:15.489Z,22.26
2018-12-17T02:40:15.478Z,22.16
2018-12-17T02:41:15.462Z,22.31
2018-12-17T02:42:15.462Z,22.27
2018-12-17T02:43:15.438Z,22.27
2018-12-17T02:44:15.431Z,22.16
2018-12-17T02:45:15.425Z,22.23
2018-12-17T02:46:15.411Z,22.15
2018-12-17T02:47:15.422Z,22.18
2018-12-17T02:48:15.382Z,22.23
2018-12-17T02:49:15.372Z,22.22
2018-12-17T02:50:15.359Z,22.23
2018-12-17T02:51:15.350Z,22.20
2018-12-17T02:52:15.351Z,22.22
2018-12-17T02:53:15.325Z,22.27
2018-12-17T02:54:15.329Z,22.24
2018-12-17T02:55:15.306Z,22.20
2018-12-17T02:56:15.296Z,22.15
2018-12-17T02:57:15.292Z,22.20
2018-12-17T02:58:15.275Z,22.20
2018-12-17T02:59:15.258Z,22.23
2018-12-17T03:00:15.247Z,22.16
2018-12-17T03:01:15.236Z,22.18
2018-12-17T03:02:15.241Z,22.20
2018-12-17T03:03:15.220Z,22.20
2018-12-17T03:04:15.234Z,22.20
2018-12-17T03:05:15.191Z,22.16
2018-12-17T03:06:15.186Z,22.23
2018-12-17T03:07:15.198Z,22.18
2018-12-17T03:08:15.157Z,22.20
2018-12-17T03:09:15.145Z,22.14
2018-12-17T03:10:15.137Z,22.22
2018-12-17T03:11:15.125Z,22.24
2018-12-17T03:12:15.125Z,22.16
2018-12-17T03:13:15.105Z,22.24
2018-12-17T03:14:15.090Z,22.20
2018-12-17T03:15:15.083Z,22.22
2018-12-17T03:16:15.095Z,22.20
2018-12-17T03:17:15.086Z,22.24
2018-12-17T03:18:15.046Z,22.14
2018-12-17T03:19:15.034Z,22.16
2018-12-17T03:20:15.031Z,22.24
2018-12-17T03:21:15.030Z,22.14
2018-12-17T03:22:15.033Z,22.24
2018-12-17T03:23:14.991Z,22.29
2018-12-17T03:24:14.983Z,22.20
2018-12-17T03:25:14.979Z,22.24
2018-12-17T03:26:14.957Z,22.22
2018-12-17T03:27:14.948Z,22.18
2018-12-17T03:28:14.944Z,22.20
2018-12-17T03:29:14.923Z,22.24
2018-12-17T03:30:14.954Z,22.22
2018-12-17T03:31:14.904Z,22.26
2018-12-17T03:32:14.896Z,22.18
2018-12-17T03:33:14.892Z,22.23
2018-12-17T03:34:14.866Z,22.29
2018-12-17T03:35:14.853Z,22.22
2018-12-17T03:36:14.844Z,22.26
2018-12-17T03:37:14.832Z,22.23
2018-12-17T03:38:14.836Z,22.36
2018-12-17T03:39:14.809Z,22.26
2018-12-17T03:40:14.818Z,22.20
2018-12-17T03:41:14.788Z,22.18
2018-12-17T03:42:14.780Z,22.29
2018-12-17T03:43:14.783Z,22.33
2018-12-17T03:44:14.754Z,22.24
2018-12-17T03:45:14.743Z,22.29
2018-12-17T03:46:14.733Z,22.31
2018-12-17T03:47:14.719Z,22.31
2018-12-17T03:48:14.729Z,22.22
2018-12-17T03:49:14.712Z,22.29
2018-12-17T03:50:14.689Z,22.27
2018-12-17T03:51:14.674Z,22.30
2018-12-17T03:52:14.671Z,22.29
2018-12-17T03:53:14.678Z,22.33
2018-12-17T03:54:14.642Z,22.38
2018-12-17T03:55:14.651Z,22.27
2018-12-17T03:56:14.619Z,22.27
2018-12-17T03:57:14.609Z,22.30
2018-12-17T03:58:14.611Z,22.27
2018-12-17T03:59:14.587Z,22.24
2018-12-17T04:00:14.580Z,22.36
2018-12-17T04:01:14.562Z,22.38
2018-12-17T04:02:14.553Z,22.26
2018-12-17T04:03:14.561Z,22.30
2018-12-17T04:04:14.532Z,22.41
2018-12-17T04:05:14.519Z,22.24
2018-12-17T04:06:14.521Z,22.36
2018-12-17T04:07:14.497Z,22.31
2018-12-17T04:08:14.497Z,22.34
2018-12-17T04:09:14.474Z,22.38
2018-12-17T04:10:14.463Z,22.36
2018-12-17T04:11:14.459Z,22.34
2018-12-17T04:12:14.440Z,22.36
2018-12-17T04:13:14.442Z,22.34
2018-12-17T04:14:14.419Z,22.41
2018-12-17T04:15:14.406Z,22.39
2018-12-17T04:16:14.405Z,22.34
2018-12-17T04:17:14.386Z,22.38
2018-12-17T04:18:14.384Z,22.36
2018-12-17T04:19:14.361Z,22.39
2018-12-17T04:20:14.350Z,22.26
2018-12-17T04:21:14.339Z,22.36
2018-12-17T04:22:14.328Z,22.31
2018-12-17T04:23:14.331Z,22.34
2018-12-17T04:24:14.305Z,22.38
2018-12-17T04:25:14.293Z,22.42
2018-12-17T04:26:14.302Z,22.36
2018-12-17T04:27:14.286Z,22.38
2018-12-17T04:28:14.273Z,22.36
2018-12-17T04:29:14.264Z,22.30
2018-12-17T04:30:14.237Z,22.44
2018-12-17T04:31:14.226Z,22.27
2018-12-17T04:32:14.217Z,22.41
2018-12-17T04:33:14.217Z,22.33
2018-12-17T04:34:14.196Z,22.39
2018-12-17T04:35:14.182Z,22.31
2018-12-17T04:36:14.172Z,22.39
2018-12-17T04:37:14.158Z,22.27
2018-12-17T04:38:14.159Z,22.34
2018-12-17T04:39:14.154Z,22.39
2018-12-17T04:40:14.127Z,22.30
2018-12-17T04:41:14.115Z,22.24
2018-12-17T04:42:14.104Z,22.27
2018-12-17T04:43:14.129Z,22.34
2018-12-17T04:44:14.087Z,22.33
2018-12-17T04:45:14.072Z,22.31
2018-12-17T04:46:14.070Z,22.26
2018-12-17T04:47:14.049Z,22.26
2018-12-17T04:48:14.049Z,22.27
2018-12-17T04:49:14.060Z,22.22
2018-12-17T04:50:14.015Z,22.34
2018-12-17T04:51:14.003Z,22.30
2018-12-17T04:52:14.004Z,22.29
2018-12-17T04:53:13.981Z,22.30
2018-12-17T04:54:13.988Z,22.26
2018-12-17T04:55:13.959Z,22.30
2018-12-17T04:56:13.950Z,22.16
2018-12-17T04:57:13.940Z,22.27
2018-12-17T04:58:13.928Z,22.31
2018-12-17T04:59:14.779Z,22.29
2018-12-17T05:00:13.903Z,22.22
2018-12-17T05:01:13.902Z,22.26
2018-12-17T05:02:13.889Z,22.23
2018-12-17T05:03:13.871Z,22.26
2018-12-17T05:04:13.877Z,22.30
2018-12-17T05:05:13.851Z,22.29
2018-12-17T05:06:13.835Z,22.26
2018-12-17T05:07:13.824Z,22.29
2018-12-17T05:08:13.817Z,22.31
2018-12-17T05:09:13.817Z,22.27
2018-12-17T05:10:13.793Z,22.31
2018-12-17T05:11:13.795Z,22.26
2018-12-17T05:12:13.783Z,22.30
2018-12-17T05:13:13.758Z,22.26
2018-12-17T05:14:13.763Z,22.34
2018-12-17T05:15:13.734Z,22.30
2018-12-17T05:16:13.723Z,22.33
2018-12-17T05:17:13.713Z,22.34
2018-12-17T05:18:13.705Z,22.34
2018-12-17T05:19:13.706Z,22.26
2018-12-17T05:20:13.677Z,22.27
2018-12-17T05:21:13.669Z,22.26
2018-12-17T05:22:13.661Z,22.34
2018-12-17T05:23:13.654Z,22.31
2018-12-17T05:24:13.646Z,22.33
2018-12-17T05:25:13.626Z,22.34
2018-12-17T05:26:13.616Z,22.22
2018-12-17T05:27:13.691Z,22.34
2018-12-17T05:28:13.592Z,22.27
2018-12-17T05:29:13.614Z,22.33
2018-12-17T05:30:13.567Z,22.33
2018-12-17T05:31:13.555Z,22.27
2018-12-17T05:32:13.550Z,22.29
2018-12-17T05:33:13.541Z,22.34
2018-12-17T05:34:13.526Z,22.29
2018-12-17T05:35:13.539Z,22.33
2018-12-17T05:36:13.504Z,22.24
2018-12-17T05:37:13.493Z,22.34
2018-12-17T05:38:13.496Z,22.23
2018-12-17T05:39:13.466Z,22.23
2018-12-17T05:40:13.484Z,22.23
2018-12-17T05:41:13.455Z,22.26
2018-12-17T05:42:13.443Z,22.34
2018-12-17T05:43:13.446Z,22.29
2018-12-17T05:44:13.415Z,22.36
2018-12-17T05:45:13.413Z,22.27
2018-12-17T05:46:13.388Z,22.20
2018-12-17T05:47:13.382Z,22.29
2018-12-17T05:48:13.369Z,22.26
2018-12-17T05:49:13.365Z,22.23
2018-12-17T05:50:13.363Z,22.34
2018-12-17T05:51:13.335Z,22.31
2018-12-17T05:52:13.321Z,22.33
2018-12-17T05:53:13.316Z,22.34
2018-12-17T05:54:13.298Z,22.24
2018-12-17T05:55:13.306Z,22.30
2018-12-17T05:56:13.291Z,22.31
2018-12-17T05:57:13.271Z,22.24
2018-12-17T05:58:13.269Z,22.29
2018-12-17T05:59:13.249Z,22.29
2018-12-17T06:00:13.256Z,22.23
2018-12-17T06:01:13.221Z,22.27
2018-12-17T06:02:13.210Z,22.26
2018-12-17T06:03:13.201Z,22.34
2018-12-17T06:04:13.186Z,22.27
2018-12-17T06:05:13.186Z,22.18
2018-12-17T06:06:13.167Z,22.29
2018-12-17T06:07:13.153Z,22.31
2018-12-17T06:08:13.152Z,22.24
2018-12-17T06:09:13.136Z,22.26
2018-12-17T06:10:13.140Z,22.29
2018-12-17T06:11:13.108Z,22.26
2018-12-17T06:12:13.104Z,22.23
2018-12-17T06:13:13.143Z,22.26
2018-12-17T06:14:13.075Z,22.34
2018-12-17T06:15:13.106Z,22.30
2018-12-17T06:16:13.055Z,22.18
2018-12-17T06:17:13.044Z,22.26
2018-12-17T06:18:13.034Z,22.31
2018-12-17T06:19:13.026Z,22.31
2018-12-17T06:20:13.022Z,22.26
2018-12-17T06:21:13.010Z,22.26
2018-12-17T06:22:12.985Z,22.29
2018-12-17T06:23:12.979Z,22.23
2018-12-17T06:24:12.968Z,22.36
2018-12-17T06:25:12.967Z,22.24
2018-12-17T06:26:12.941Z,22.36
2018-12-17T06:27:12.929Z,22.22
2018-12-17T06:28:12.919Z,22.26
2018-12-17T06:29:12.917Z,22.26
2018-12-17T06:30:12.910Z,22.26
2018-12-17T06:31:12.887Z,22.31
2018-12-17T06:32:12.875Z,22.34
2018-12-17T06:33:15.788Z,22.29
2018-12-17T06:34:12.855Z,22.34
2018-12-17T06:35:12.853Z,22.33
2018-12-17T06:36:12.831Z,22.36
2018-12-17T06:37:12.819Z,22.22
2018-12-17T06:38:12.805Z,22.31
2018-12-17T06:39:12.799Z,22.27
2018-12-17T06:40:12.788Z,22.27
2018-12-17T06:41:12.793Z,22.33
2018-12-17T06:42:12.763Z,22.41
2018-12-17T06:43:12.753Z,22.34
2018-12-17T06:44:12.750Z,22.30
2018-12-17T06:45:12.729Z,22.30
2018-12-17T06:46:12.731Z,22.27
2018-12-17T06:47:12.707Z,22.27
2018-12-17T06:48:17.045Z,22.30
2018-12-17T06:49:12.697Z,22.33
2018-12-17T06:50:12.676Z,22.27
2018-12-17T06:51:12.675Z,22.34
2018-12-17T06:52:12.659Z,22.29
2018-12-17T06:53:12.642Z,22.31
2018-12-17T06:54:12.630Z,22.31
2018-12-17T06:55:12.618Z,22.34
2018-12-17T06:56:12.620Z,22.26
2018-12-17T06:57:12.598Z,22.27
2018-12-17T06:58:12.585Z,22.23
2018-12-17T06:59:12.575Z,22.26
2018-12-17T07:00:12.563Z,22.29
2018-12-17T07:01:12.566Z,22.36
2018-12-17T07:02:12.557Z,22.30
2018-12-17T07:03:12.535Z,22.23
2018-12-17T07:04:12.518Z,22.24
2018-12-17T07:05:12.509Z,22.27
2018-12-17T07:06:12.506Z,22.36
2018-12-17T07:07:12.498Z,22.27
2018-12-17T07:08:12.473Z,22.27
2018-12-17T07:09:12.476Z,22.23
2018-12-17T07:10:12.449Z,22.26
2018-12-17T07:11:12.461Z,22.22
2018-12-17T07:12:12.430Z,22.29
2018-12-17T07:13:12.415Z,22.29
2018-12-17T07:14:12.409Z,22.27
2018-12-17T07:15:12.394Z,22.38
2018-12-17T07:16:12.396Z,22.30
2018-12-17T07:17:12.372Z,22.22
2018-12-17T07:18:12.364Z,22.30
2018-12-17T07:19:12.350Z,22.24
2018-12-17T07:20:12.349Z,22.24
2018-12-17T07:21:12.346Z,22.30
2018-12-17T07:22:12.317Z,22.20
2018-12-17T07:23:12.306Z,22.24
2018-12-17T07:24:12.297Z,22.27
2018-12-17T07:25:12.284Z,22.27
2018-12-17T07:26:12.291Z,22.30
2018-12-17T07:27:12.261Z,22.23
2018-12-17T07:28:12.254Z,22.31
2018-12-17T07:29:12.240Z,22.23
2018-12-17T07:30:12.241Z,22.33
2018-12-17T07:31:12.235Z,22.33
2018-12-17T07:32:12.203Z,22.24
2018-12-17T07:33:12.192Z,22.30
2018-12-17T07:34:12.187Z,22.23
2018-12-17T07:35:12.173Z,22.29
2018-12-17T07:36:12.182Z,22.34
2018-12-17T07:37:12.154Z,22.26
2018-12-17T07:38:12.192Z,22.27
2018-12-17T07:39:12.125Z,22.38
2018-12-17T07:40:12.117Z,22.29
2018-12-17T07:41:12.113Z,22.23
2018-12-17T07:42:12.092Z,22.27
2018-12-17T07:43:12.087Z,22.29
2018-12-17T07:44:12.072Z,22.20
2018-12-17T07:45:12.060Z,22.23
2018-12-17T07:46:12.081Z,22.29
2018-12-17T07:47:12.044Z,22.31
2018-12-17T07:48:12.026Z,22.36
2018-12-17T07:49:12.020Z,22.26
2018-12-17T07:50:12.004Z,22.34
2018-12-17T07:51:11.998Z,22.36
2018-12-17T07:52:12.000Z,22.29
2018-12-17T07:53:11.983Z,22.31
2018-12-17T07:54:11.961Z,22.26
2018-12-17T07:55:11.973Z,22.31
2018-12-17T07:56:11.936Z,22.34
2018-12-17T07:57:11.949Z,22.26
2018-12-17T07:58:11.915Z,22.31
2018-12-17T07:59:11.922Z,22.26
2018-12-17T08:00:11.896Z,22.26
2018-12-17T08:01:11.885Z,22.30
2018-12-17T08:02:11.881Z,22.24
2018-12-17T08:03:11.858Z,22.31
2018-12-17T08:04:11.847Z,22.18
2018-12-17T08:05:11.845Z,22.33
2018-12-17T08:06:11.831Z,22.38
2018-12-17T08:07:11.836Z,22.23
2018-12-17T08:08:11.803Z,22.30
2018-12-17T08:09:11.791Z,22.30
2018-12-17T08:10:11.783Z,22.27
2018-12-17T08:11:11.773Z,22.31
2018-12-17T08:12:11.778Z,22.29
2018-12-17T08:13:11.748Z,22.24
2018-12-17T08:14:11.735Z,22.26
2018-12-17T08:15:11.727Z,22.24
2018-12-17T08:16:11.713Z,22.22
2018-12-17T08:17:11.714Z,22.33
2018-12-17T08:18:11.694Z,22.33
2018-12-17T08:19:11.680Z,22.27
2018-12-17T08:20:11.671Z,22.20
2018-12-17T08:21:11.665Z,22.23
2018-12-17T08:22:11.679Z,22.27
2018-12-17T08:23:11.644Z,22.27
2018-12-17T08:24:11.650Z,22.27
2018-12-17T08:25:11.615Z,22.29
2018-12-17T08:26:11.601Z,22.18
2018-12-17T08:27:11.593Z,22.18
2018-12-17T08:28:11.590Z,22.20
2018-12-17T08:29:11.591Z,22.16
2018-12-17T08:30:11.566Z,22.18
2018-12-17T08:31:11.545Z,22.24
2018-12-17T08:32:11.535Z,22.15
2018-12-17T08:33:11.538Z,22.20
2018-12-17T08:34:11.517Z,22.23
2018-12-17T08:35:11.504Z,22.23
2018-12-17T08:36:11.491Z,22.24
2018-12-17T08:37:11.478Z,22.23
2018-12-17T08:38:11.500Z,22.24
2018-12-17T08:39:11.463Z,22.22
2018-12-17T08:40:11.465Z,22.16
2018-12-17T08:41:11.434Z,22.22
2018-12-17T08:42:11.423Z,22.22
2018-12-17T08:43:11.424Z,22.20
2018-12-17T08:44:11.399Z,22.16
2018-12-17T08:45:11.393Z,22.22
2018-12-17T08:46:11.397Z,22.22
2018-12-17T08:47:11.366Z,22.09
2018-12-17T08:48:11.366Z,22.16
2018-12-17T08:49:11.346Z,22.20
2018-12-17T08:50:11.340Z,22.16
2018-12-17T08:51:11.331Z,22.14
2018-12-17T08:52:11.311Z,22.09
2018-12-17T08:53:11.316Z,22.16
2018-12-17T08:54:11.292Z,22.11
2018-12-17T08:55:11.281Z,22.12
2018-12-17T08:56:11.270Z,22.15
2018-12-17T08:57:11.267Z,22.09
2018-12-17T08:58:11.272Z,22.12
2018-12-17T08:59:11.299Z,22.14
2018-12-17T09:00:11.423Z,22.18
2018-12-17T09:01:11.211Z,22.12
2018-12-17T09:02:11.214Z,22.12
2018-12-17T09:03:11.205Z,22.12
2018-12-17T09:04:11.179Z,22.14
2018-12-17T09:05:11.165Z,22.11
2018-12-17T09:06:11.158Z,22.14
2018-12-17T09:07:11.146Z,22.09
2018-12-17T09:08:11.158Z,22.07
2018-12-17T09:09:11.136Z,22.12
2018-12-17T09:10:11.110Z,22.07
2018-12-17T09:11:11.097Z,22.07
2018-12-17T09:12:11.088Z,22.11
2018-12-17T09:13:11.090Z,22.11
2018-12-17T09:14:11.070Z,22.12
2018-12-17T09:15:11.053Z,22.08
2018-12-17T09:16:11.046Z,22.08
2018-12-17T09:17:11.032Z,22.11
2018-12-17T09:18:11.032Z,22.04
2018-12-17T09:19:11.012Z,22.08
2018-12-17T09:20:11.002Z,22.15
2018-12-17T09:21:10.989Z,22.11
2018-12-17T09:22:10.975Z,22.09
2018-12-17T09:23:10.983Z,22.14
2018-12-17T09:24:11.031Z,22.11
2018-12-17T09:25:10.956Z,22.15
2018-12-17T09:26:10.936Z,22.11
2018-12-17T09:27:10.919Z,22.11
2018-12-17T09:28:10.908Z,22.09
2018-12-17T09:29:10.910Z,22.08
2018-12-17T09:30:10.888Z,22.09
2018-12-17T09:31:10.876Z,22.15
2018-12-17T09:32:10.864Z,22.12
2018-12-17T09:33:10.853Z,22.18
2018-12-17T09:34:10.854Z,22.15
2018-12-17T09:35:10.836Z,22.09
2018-12-17T09:36:10.831Z,22.15
2018-12-17T09:37:10.813Z,22.07
2018-12-17T09:38:10.820Z,22.15
2018-12-17T09:39:10.797Z,22.16
2018-12-17T09:40:10.780Z,22.22
2018-12-17T09:41:10.764Z,22.18
2018-12-17T09:42:10.755Z,22.20
2018-12-17T09:43:10.741Z,22.20
2018-12-17T09:44:10.748Z,22.23
2018-12-17T09:45:10.721Z,22.15
2018-12-17T09:46:10.707Z,22.20
2018-12-17T09:47:10.740Z,22.18
2018-12-17T09:48:10.707Z,22.22
2018-12-17T09:49:10.697Z,22.20
2018-12-17T09:50:10.713Z,22.24
2018-12-17T09:51:10.651Z,22.30
2018-12-17T09:52:10.644Z,22.16
2018-12-17T09:53:10.634Z,22.22
2018-12-17T09:54:10.634Z,22.29
2018-12-17T09:55:10.608Z,22.20
2018-12-17T09:56:10.595Z,22.18
2018-12-17T09:57:10.585Z,22.15
2018-12-17T09:58:10.575Z,22.24
2018-12-17T09:59:10.577Z,22.30
2018-12-17T10:00:10.557Z,22.29
2018-12-17T10:01:10.540Z,22.20
2018-12-17T10:02:10.528Z,22.29
2018-12-17T10:03:10.517Z,22.33
2018-12-17T10:04:10.528Z,22.23
2018-12-17T10:05:10.499Z,22.36
2018-12-17T10:06:10.489Z,22.30
2018-12-17T10:07:10.475Z,22.26
2018-12-17T10:08:10.463Z,22.26
2018-12-17T10:09:10.483Z,22.27
2018-12-17T10:10:10.451Z,22.24
2018-12-17T10:11:10.446Z,22.29
2018-12-17T10:12:10.416Z,22.24
2018-12-17T10:13:10.407Z,22.24
2018-12-17T10:14:10.395Z,22.27
2018-12-17T10:15:10.395Z,22.34
2018-12-17T10:16:10.371Z,22.24
2018-12-17T10:17:10.371Z,22.22
2018-12-17T10:18:10.354Z,22.30
2018-12-17T10:19:10.347Z,22.27
2018-12-17T10:20:10.338Z,22.27
2018-12-17T10:21:10.337Z,22.26
2018-12-17T10:22:10.307Z,22.29
2018-12-17T10:23:10.302Z,22.31
2018-12-17T10:24:10.283Z,22.36
2018-12-17T10:25:10.284Z,22.34
2018-12-17T10:26:10.266Z,22.23
2018-12-17T10:27:10.248Z,22.23
2018-12-17T10:28:10.241Z,22.26
2018-12-17T10:29:10.230Z,22.24
2018-12-17T10:30:10.227Z,22.22
2018-12-17T10:31:10.208Z,22.30
2018-12-17T10:32:10.199Z,22.30
2018-12-17T10:33:10.189Z,22.34
2018-12-17T10:34:10.200Z,22.18
2018-12-17T10:35:10.171Z,22.24
2018-12-17T10:36:10.150Z,22.26
2018-12-17T10:37:10.136Z,22.33
2018-12-17T10:38:10.126Z,22.27
2018-12-17T10:39:10.118Z,22.33
2018-12-17T10:40:10.116Z,22.26
2018-12-17T10:41:10.092Z,22.31
2018-12-17T10:42:10.087Z,22.29
2018-12-17T10:43:10.073Z,22.29
2018-12-17T10:44:10.059Z,22.30
2018-12-17T10:45:10.061Z,22.29
2018-12-17T10:46:10.045Z,22.26
2018-12-17T10:47:10.027Z,22.33
2018-12-17T10:48:10.020Z,22.30
2018-12-17T10:49:10.007Z,22.20
2018-12-17T10:50:10.006Z,22.27
2018-12-17T10:51:09.984Z,22.34
2018-12-17T10:52:09.970Z,22.16
2018-12-17T10:53:09.961Z,22.34
2018-12-17T10:54:09.949Z,22.29
2018-12-17T10:55:09.948Z,22.18
2018-12-17T10:56:10.033Z,22.22
2018-12-17T10:57:09.932Z,22.29
2018-12-17T10:58:09.901Z,22.23
2018-12-17T10:59:09.891Z,22.18
2018-12-17T11:00:10.013Z,22.26
2018-12-17T11:01:09.870Z,22.15
2018-12-17T11:02:09.858Z,22.18
2018-12-17T11:03:09.853Z,22.16
2018-12-17T11:04:09.843Z,22.20
2018-12-17T11:05:09.828Z,22.26
2018-12-17T11:06:09.830Z,22.22
2018-12-17T11:07:09.813Z,22.16
2018-12-17T11:08:09.795Z,22.22
2018-12-17T11:09:09.780Z,22.22
2018-12-17T11:10:09.769Z,22.20
2018-12-17T11:11:09.772Z,22.20
2018-12-17T11:12:09.747Z,22.20
2018-12-17T11:13:09.744Z,22.20
2018-12-17T11:14:09.726Z,22.22
2018-12-17T11:15:09.714Z,22.20
2018-12-17T11:16:09.717Z,22.18
2018-12-17T11:17:09.705Z,22.20
2018-12-17T11:18:09.678Z,22.14
2018-12-17T11:19:09.666Z,22.15
2018-12-17T11:20:09.676Z,22.20
2018-12-17T11:21:09.685Z,22.16
2018-12-17T11:22:09.635Z,22.15
2018-12-17T11:23:09.661Z,22.14
2018-12-17T11:24:09.612Z,22.14
2018-12-17T11:25:09.600Z,22.09
2018-12-17T11:26:09.600Z,22.16
2018-12-17T11:27:09.579Z,22.07
2018-12-17T11:28:09.569Z,22.12
2018-12-17T11:29:09.560Z,22.09
2018-12-17T11:30:09.590Z,22.12
2018-12-17T11:31:09.546Z,22.07
2018-12-17T11:32:11.700Z,22.12
2018-12-17T11:33:09.514Z,22.08
2018-12-17T11:34:09.501Z,22.08
2018-12-17T11:35:09.488Z,22.08
2018-12-17T11:36:09.488Z,22.15
2018-12-17T11:37:09.472Z,22.12
2018-12-17T11:38:09.455Z,22.12
2018-12-17T11:39:09.445Z,22.09
2018-12-17T11:40:09.434Z,22.11
2018-12-17T11:41:09.733Z,22.15
2018-12-17T11:42:09.411Z,22.12
2018-12-17T11:43:09.418Z,22.11
2018-12-17T11:44:09.386Z,22.14
2018-12-17T11:45:09.389Z,22.09
2018-12-17T11:46:09.379Z,22.11
2018-12-17T11:47:09.353Z,22.12
2018-12-17T11:48:09.343Z,22.20
2018-12-17T11:49:09.332Z,22.20
2018-12-17T11:50:09.319Z,22.14
2018-12-17T11:51:09.320Z,22.16
2018-12-17T11:52:09.298Z,22.09
2018-12-17T11:53:09.284Z,22.11
2018-12-17T11:54:09.281Z,22.09
2018-12-17T11:55:09.268Z,22.09
2018-12-17T11:56:09.269Z,22.15
2018-12-17T11:57:09.241Z,22.18
2018-12-17T11:58:09.229Z,22.12
2018-12-17T11:59:09.219Z,22.12
2018-12-17T12:00:09.225Z,22.16
2018-12-17T12:01:09.237Z,22.16
2018-12-17T12:02:09.185Z,22.15
2018-12-17T12:03:09.176Z,22.20
2018-12-17T12:04:09.166Z,22.16
2018-12-17T12:05:09.159Z,22.18
2018-12-17T12:06:13.870Z,22.16
2018-12-17T12:07:10.151Z,22.16
2018-12-17T12:08:09.119Z,22.24
2018-12-17T12:09:09.108Z,22.18
2018-12-17T12:10:09.096Z,22.16
2018-12-17T12:11:09.093Z,22.20
2018-12-17T12:12:09.088Z,22.20
2018-12-17T12:13:09.067Z,22.12
2018-12-17T12:14:09.050Z,22.18
2018-12-17T12:15:09.042Z,22.16
2018-12-17T12:16:09.029Z,22.23
2018-12-17T12:17:09.030Z,22.20
2018-12-17T12:18:09.008Z,22.22
2018-12-17T12:19:09.000Z,22.22
2018-12-17T12:20:08.982Z,22.31
2018-12-17T12:21:08.974Z,22.24
2018-12-17T12:22:08.973Z,22.22
2018-12-17T12:23:08.950Z,22.24
2018-12-17T12:24:08.947Z,22.27
2018-12-17T12:25:08.928Z,22.16
2018-12-17T12:26:08.915Z,22.18
2018-12-17T12:27:08.918Z,22.31
2018-12-17T12:28:08.899Z,22.22
2018-12-17T12:29:08.896Z,22.33
2018-12-17T12:30:08.874Z,22.26
2018-12-17T12:31:08.860Z,22.29
2018-12-17T12:32:08.864Z,22.38
2018-12-17T12:33:08.838Z,22.34
2018-12-17T12:34:08.832Z,22.30
2018-12-17T12:35:08.815Z,22.30
2018-12-17T12:36:08.806Z,22.29
2018-12-17T12:37:08.805Z,22.29
2018-12-17T12:38:08.782Z,22.34
2018-12-17T12:39:08.800Z,22.33
2018-12-17T12:40:08.762Z,22.23
2018-12-17T12:41:08.754Z,22.26
2018-12-17T12:42:08.774Z,22.29
2018-12-17T12:43:08.725Z,22.27
2018-12-17T12:44:09.010Z,22.16
2018-12-17T12:45:08.702Z,22.27
2018-12-17T12:46:08.740Z,22.22
2018-12-17T12:47:08.682Z,22.23
2018-12-17T12:48:08.681Z,22.26
2018-12-17T12:49:08.660Z,22.29
2018-12-17T12:50:08.650Z,22.18
2018-12-17T12:51:08.640Z,22.20
2018-12-17T12:52:08.654Z,22.27